Chatham, United Kingdom
Current Conditions -  °F | °C
As of 11:50 PM on Wednesday 28 Jan 2015 (Local Time) from EGMC Reporting Station
Clear Clear  
Wind Chill: 27°   Ceiling: Unl
Heat Index: 37°   Visibility: 6mi
Dew Point: 28°   Wind: 20mph
Humidity: 70%   Direction: 250°WSW
Pressure: 29.44"   Gusts: NA
Location:  51.38°N, 0.53°E
Report Text: EGMC 282350Z 25017KT CAVOK 03/M02 Q0997
Loading
Personal Weather Stations






























Interactive Weather Map New forecast layout! Learn more

10-Day Weather Forecast

Advertisements
Track Severe Weather on mobile